sensor_id;sensor_type;location;lat;lon;timestamp;P1;durP1;ratioP1;P2;durP2;ratioP2
3054;SDS011;1537;52.018;8.542;2023-12-04T00:00:49;26.90;;;15.80;;
3054;SDS011;1537;52.018;8.542;2023-12-04T00:04:15;28.93;;;18.57;;
3054;SDS011;1537;52.018;8.542;2023-12-04T00:07:39;21.93;;;14.17;;
3054;SDS011;1537;52.018;8.542;2023-12-04T00:11:04;25.07;;;15.77;;
3054;SDS011;1537;52.018;8.542;2023-12-04T00:14:29;30.57;;;17.27;;
3054;SDS011;1537;52.018;8.542;2023-12-04T00:17:53;28.87;;;18.60;;
3054;SDS011;1537;52.018;8.542;2023-12-04T00:21:21;29.87;;;17.43;;
3054;SDS011;1537;52.018;8.542;2023-12-04T00:24:45;27.40;;;17.50;;
3054;SDS011;1537;52.018;8.542;2023-12-04T00:28:13;26.43;;;14.10;;
3054;SDS011;1537;52.018;8.542;2023-12-04T00:31:39;20.83;;;14.50;;
3054;SDS011;1537;52.018;8.542;2023-12-04T00:35:04;26.17;;;15.87;;
3054;SDS011;1537;52.018;8.542;2023-12-04T00:38:31;24.70;;;15.53;;
3054;SDS011;1537;52.018;8.542;2023-12-04T00:41:55;26.97;;;16.00;;
3054;SDS011;1537;52.018;8.542;2023-12-04T00:45:20;23.20;;;14.60;;
3054;SDS011;1537;52.018;8.542;2023-12-04T00:48:50;22.23;;;14.33;;
3054;SDS011;1537;52.018;8.542;2023-12-04T00:52:15;27.53;;;15.73;;
3054;SDS011;1537;52.018;8.542;2023-12-04T00:55:44;20.63;;;12.67;;
3054;SDS011;1537;52.018;8.542;2023-12-04T00:59:12;25.60;;;12.33;;
3054;SDS011;1537;52.018;8.542;2023-12-04T01:02:36;23.17;;;15.43;;
3054;SDS011;1537;52.018;8.542;2023-12-04T01:06:01;25.70;;;16.40;;
3054;SDS011;1537;52.018;8.542;2023-12-04T01:09:27;24.47;;;14.97;;
3054;SDS011;1537;52.018;8.542;2023-12-04T01:12:53;26.73;;;16.93;;
3054;SDS011;1537;52.018;8.542;2023-12-04T01:16:19;22.83;;;14.90;;
3054;SDS011;1537;52.018;8.542;2023-12-04T01:19:45;26.77;;;17.23;;
3054;SDS011;1537;52.018;8.542;2023-12-04T01:23:11;22.80;;;14.90;;
3054;SDS011;1537;52.018;8.542;2023-12-04T01:26:38;27.97;;;17.07;;
3054;SDS011;1537;52.018;8.542;2023-12-04T01:30:07;25.87;;;14.53;;
3054;SDS011;1537;52.018;8.542;2023-12-04T01:33:33;27.73;;;17.67;;
3054;SDS011;1537;52.018;8.542;2023-12-04T01:36:59;25.87;;;12.03;;
3054;SDS011;1537;52.018;8.542;2023-12-04T01:41:00;24.93;;;16.77;;
3054;SDS011;1537;52.018;8.542;2023-12-04T01:52:36;31.20;;;17.63;;
3054;SDS011;1537;52.018;8.542;2023-12-04T01:56:03;24.33;;;16.20;;
3054;SDS011;1537;52.018;8.542;2023-12-04T01:59:30;27.00;;;16.67;;
3054;SDS011;1537;52.018;8.542;2023-12-04T02:03:01;22.80;;;15.17;;
3054;SDS011;1537;52.018;8.542;2023-12-04T02:06:28;28.17;;;15.80;;
3054;SDS011;1537;52.018;8.542;2023-12-04T02:09:54;26.73;;;15.67;;
3054;SDS011;1537;52.018;8.542;2023-12-04T02:13:18;22.17;;;14.57;;
3054;SDS011;1537;52.018;8.542;2023-12-04T02:16:45;23.27;;;14.83;;
3054;SDS011;1537;52.018;8.542;2023-12-04T02:20:15;23.93;;;16.30;;
3054;SDS011;1537;52.018;8.542;2023-12-04T02:27:50;21.30;;;13.37;;
3054;SDS011;1537;52.018;8.542;2023-12-04T02:31:17;22.00;;;13.93;;
3054;SDS011;1537;52.018;8.542;2023-12-04T02:34:46;22.33;;;14.40;;
3054;SDS011;1537;52.018;8.542;2023-12-04T02:38:14;19.77;;;13.63;;
3054;SDS011;1537;52.018;8.542;2023-12-04T02:41:39;20.83;;;13.17;;
3054;SDS011;1537;52.018;8.542;2023-12-04T02:45:07;21.37;;;11.20;;
3054;SDS011;1537;52.018;8.542;2023-12-04T02:48:32;22.17;;;13.63;;
3054;SDS011;1537;52.018;8.542;2023-12-04T02:51:59;20.10;;;14.07;;
3054;SDS011;1537;52.018;8.542;2023-12-04T02:55:26;21.03;;;13.23;;
3054;SDS011;1537;52.018;8.542;2023-12-04T02:58:52;18.17;;;12.40;;
3054;SDS011;1537;52.018;8.542;2023-12-04T03:02:22;20.43;;;12.40;;
3054;SDS011;1537;52.018;8.542;2023-12-04T03:05:48;20.77;;;13.50;;
3054;SDS011;1537;52.018;8.542;2023-12-04T03:09:13;19.33;;;12.97;;
3054;SDS011;1537;52.018;8.542;2023-12-04T03:12:44;19.30;;;12.23;;
3054;SDS011;1537;52.018;8.542;2023-12-04T03:28:20;19.80;;;11.83;;
3054;SDS011;1537;52.018;8.542;2023-12-04T03:44:04;21.73;;;12.37;;
3054;SDS011;1537;52.018;8.542;2023-12-04T03:47:32;16.77;;;11.23;;
3054;SDS011;1537;52.018;8.542;2023-12-04T03:50:58;16.67;;;12.43;;
3054;SDS011;1537;52.018;8.542;2023-12-04T04:06:39;15.67;;;11.37;;
3054;SDS011;1537;52.018;8.542;2023-12-04T04:10:04;14.10;;;10.83;;
3054;SDS011;1537;52.018;8.542;2023-12-04T04:13:35;14.43;;;11.43;;
3054;SDS011;1537;52.018;8.542;2023-12-04T04:24:36;18.43;;;12.30;;
3054;SDS011;1537;52.018;8.542;2023-12-04T04:28:05;18.53;;;13.27;;
3054;SDS011;1537;52.018;8.542;2023-12-04T04:31:31;16.40;;;13.90;;
3054;SDS011;1537;52.018;8.542;2023-12-04T04:34:57;16.40;;;13.13;;
3054;SDS011;1537;52.018;8.542;2023-12-04T04:38:26;17.50;;;12.77;;
3054;SDS011;1537;52.018;8.542;2023-12-04T04:41:53;14.80;;;11.63;;
3054;SDS011;1537;52.018;8.542;2023-12-04T04:45:19;16.00;;;11.67;;
3054;SDS011;1537;52.018;8.542;2023-12-04T04:48:45;15.03;;;12.23;;
3054;SDS011;1537;52.018;8.542;2023-12-04T04:52:13;15.00;;;11.73;;
3054;SDS011;1537;52.018;8.542;2023-12-04T04:55:39;16.43;;;12.20;;
3054;SDS011;1537;52.018;8.542;2023-12-04T04:59:11;15.57;;;12.40;;
3054;SDS011;1537;52.018;8.542;2023-12-04T05:02:36;15.17;;;12.20;;
3054;SDS011;1537;52.018;8.542;2023-12-04T05:06:03;15.30;;;12.83;;
3054;SDS011;1537;52.018;8.542;2023-12-04T05:09:33;15.50;;;12.20;;
3054;SDS011;1537;52.018;8.542;2023-12-04T05:13:01;16.23;;;13.73;;
3054;SDS011;1537;52.018;8.542;2023-12-04T05:20:18;16.03;;;13.33;;
3054;SDS011;1537;52.018;8.542;2023-12-04T05:23:48;13.93;;;12.43;;
3054;SDS011;1537;52.018;8.542;2023-12-04T05:27:21;14.80;;;13.17;;
3054;SDS011;1537;52.018;8.542;2023-12-04T05:30:51;14.00;;;11.60;;
3054;SDS011;1537;52.018;8.542;2023-12-04T05:34:17;17.73;;;13.23;;
3054;SDS011;1537;52.018;8.542;2023-12-04T05:37:45;14.70;;;13.13;;
3054;SDS011;1537;52.018;8.542;2023-12-04T05:41:10;17.37;;;13.00;;
3054;SDS011;1537;52.018;8.542;2023-12-04T05:44:36;15.23;;;12.13;;
3054;SDS011;1537;52.018;8.542;2023-12-04T05:48:04;14.80;;;12.13;;
3054;SDS011;1537;52.018;8.542;2023-12-04T05:51:31;13.53;;;12.20;;
3054;SDS011;1537;52.018;8.542;2023-12-04T05:54:58;13.80;;;12.30;;
3054;SDS011;1537;52.018;8.542;2023-12-04T05:58:25;14.10;;;12.70;;
3054;SDS011;1537;52.018;8.542;2023-12-04T06:01:53;17.47;;;15.43;;
3054;SDS011;1537;52.018;8.542;2023-12-04T06:05:22;14.20;;;12.10;;
3054;SDS011;1537;52.018;8.542;2023-12-04T06:08:49;14.93;;;12.40;;
3054;SDS011;1537;52.018;8.542;2023-12-04T06:12:14;16.47;;;12.73;;
3054;SDS011;1537;52.018;8.542;2023-12-04T06:15:40;14.40;;;11.70;;
3054;SDS011;1537;52.018;8.542;2023-12-04T06:19:07;13.53;;;12.10;;
3054;SDS011;1537;52.018;8.542;2023-12-04T06:22:37;15.50;;;13.87;;
3054;SDS011;1537;52.018;8.542;2023-12-04T06:26:02;13.90;;;12.27;;
3054;SDS011;1537;52.018;8.542;2023-12-04T06:29:33;14.77;;;12.40;;
3054;SDS011;1537;52.018;8.542;2023-12-04T06:33:00;16.23;;;12.57;;
3054;SDS011;1537;52.018;8.542;2023-12-04T06:36:26;15.20;;;13.47;;
3054;SDS011;1537;52.018;8.542;2023-12-04T06:40:00;15.33;;;12.70;;
3054;SDS011;1537;52.018;8.542;2023-12-04T06:43:29;16.03;;;14.43;;
3054;SDS011;1537;52.018;8.542;2023-12-04T06:46:58;15.50;;;12.17;;
3054;SDS011;1537;52.018;8.542;2023-12-04T06:50:37;16.90;;;12.67;;
3054;SDS011;1537;52.018;8.542;2023-12-04T06:54:06;15.97;;;13.57;;
3054;SDS011;1537;52.018;8.542;2023-12-04T06:57:50;13.53;;;12.13;;
3054;SDS011;1537;52.018;8.542;2023-12-04T07:01:15;31.97;;;14.00;;
3054;SDS011;1537;52.018;8.542;2023-12-04T07:04:40;17.77;;;14.17;;
3054;SDS011;1537;52.018;8.542;2023-12-04T07:08:06;13.33;;;11.93;;
3054;SDS011;1537;52.018;8.542;2023-12-04T07:11:31;14.70;;;12.40;;
3054;SDS011;1537;52.018;8.542;2023-12-04T07:14:57;14.77;;;13.27;;
3054;SDS011;1537;52.018;8.542;2023-12-04T07:18:22;14.87;;;13.37;;
3054;SDS011;1537;52.018;8.542;2023-12-04T07:21:47;13.80;;;12.30;;
3054;SDS011;1537;52.018;8.542;2023-12-04T07:25:13;13.47;;;11.97;;
3054;SDS011;1537;52.018;8.542;2023-12-04T07:28:39;13.70;;;12.40;;
3054;SDS011;1537;52.018;8.542;2023-12-04T07:32:07;12.37;;;11.17;;
3054;SDS011;1537;52.018;8.542;2023-12-04T07:35:33;16.33;;;12.90;;
3054;SDS011;1537;52.018;8.542;2023-12-04T07:39:02;14.20;;;12.80;;
3054;SDS011;1537;52.018;8.542;2023-12-04T07:42:29;38.10;;;16.73;;
3054;SDS011;1537;52.018;8.542;2023-12-04T07:45:55;156.90;;;31.83;;
3054;SDS011;1537;52.018;8.542;2023-12-04T07:49:25;14.57;;;12.50;;
3054;SDS011;1537;52.018;8.542;2023-12-04T07:52:53;16.40;;;13.13;;
3054;SDS011;1537;52.018;8.542;2023-12-04T07:56:18;13.67;;;12.33;;
3054;SDS011;1537;52.018;8.542;2023-12-04T07:59:43;14.10;;;11.67;;
3054;SDS011;1537;52.018;8.542;2023-12-04T08:03:13;14.13;;;12.63;;
3054;SDS011;1537;52.018;8.542;2023-12-04T08:06:38;15.00;;;13.30;;
3054;SDS011;1537;52.018;8.542;2023-12-04T08:10:04;13.20;;;11.40;;
3054;SDS011;1537;52.018;8.542;2023-12-04T08:13:30;14.33;;;12.93;;
3054;SDS011;1537;52.018;8.542;2023-12-04T08:17:00;16.13;;;13.50;;
3054;SDS011;1537;52.018;8.542;2023-12-04T08:20:30;13.90;;;12.53;;
3054;SDS011;1537;52.018;8.542;2023-12-04T08:24:04;14.47;;;12.90;;
3054;SDS011;1537;52.018;8.542;2023-12-04T08:27:28;13.47;;;12.17;;
3054;SDS011;1537;52.018;8.542;2023-12-04T08:30:52;15.07;;;12.10;;
3054;SDS011;1537;52.018;8.542;2023-12-04T08:34:16;13.27;;;11.87;;
3054;SDS011;1537;52.018;8.542;2023-12-04T08:37:39;15.70;;;14.00;;
3054;SDS011;1537;52.018;8.542;2023-12-04T08:41:05;15.97;;;14.07;;
3054;SDS011;1537;52.018;8.542;2023-12-04T08:44:29;14.20;;;12.53;;
3054;SDS011;1537;52.018;8.542;2023-12-04T08:47:54;15.13;;;12.90;;
3054;SDS011;1537;52.018;8.542;2023-12-04T08:51:18;14.00;;;12.60;;
3054;SDS011;1537;52.018;8.542;2023-12-04T08:54:42;14.67;;;13.13;;
3054;SDS011;1537;52.018;8.542;2023-12-04T08:58:07;13.23;;;11.80;;
3054;SDS011;1537;52.018;8.542;2023-12-04T09:01:32;14.70;;;13.20;;
3054;SDS011;1537;52.018;8.542;2023-12-04T09:04:56;14.10;;;12.70;;
3054;SDS011;1537;52.018;8.542;2023-12-04T09:08:22;12.00;;;10.77;;
3054;SDS011;1537;52.018;8.542;2023-12-04T09:11:58;16.90;;;13.97;;
3054;SDS011;1537;52.018;8.542;2023-12-04T09:15:24;14.50;;;13.07;;
3054;SDS011;1537;52.018;8.542;2023-12-04T09:18:48;13.40;;;11.63;;
3054;SDS011;1537;52.018;8.542;2023-12-04T09:22:12;13.10;;;11.70;;
3054;SDS011;1537;52.018;8.542;2023-12-04T09:25:42;14.27;;;12.10;;
3054;SDS011;1537;52.018;8.542;2023-12-04T09:29:06;11.93;;;10.73;;
3054;SDS011;1537;52.018;8.542;2023-12-04T09:32:32;14.83;;;12.30;;
3054;SDS011;1537;52.018;8.542;2023-12-04T09:35:56;13.43;;;12.00;;
3054;SDS011;1537;52.018;8.542;2023-12-04T09:39:20;13.30;;;11.93;;
3054;SDS011;1537;52.018;8.542;2023-12-04T09:42:46;13.27;;;11.93;;
3054;SDS011;1537;52.018;8.542;2023-12-04T09:46:10;12.90;;;11.60;;
3054;SDS011;1537;52.018;8.542;2023-12-04T09:49:36;12.17;;;10.40;;
3054;SDS011;1537;52.018;8.542;2023-12-04T09:53:01;16.00;;;12.10;;
3054;SDS011;1537;52.018;8.542;2023-12-04T09:56:26;11.97;;;10.87;;
3054;SDS011;1537;52.018;8.542;2023-12-04T09:59:50;12.90;;;11.37;;
3054;SDS011;1537;52.018;8.542;2023-12-04T10:03:15;13.83;;;12.27;;
3054;SDS011;1537;52.018;8.542;2023-12-04T10:06:40;12.73;;;11.47;;
3054;SDS011;1537;52.018;8.542;2023-12-04T10:10:05;12.60;;;11.30;;
3054;SDS011;1537;52.018;8.542;2023-12-04T10:13:30;12.43;;;11.13;;
3054;SDS011;1537;52.018;8.542;2023-12-04T10:17:14;13.50;;;12.10;;
3054;SDS011;1537;52.018;8.542;2023-12-04T10:20:42;12.10;;;11.00;;
3054;SDS011;1537;52.018;8.542;2023-12-04T10:24:30;12.40;;;11.20;;
3054;SDS011;1537;52.018;8.542;2023-12-04T10:27:55;12.87;;;11.57;;
3054;SDS011;1537;52.018;8.542;2023-12-04T10:31:31;13.50;;;12.10;;
3054;SDS011;1537;52.018;8.542;2023-12-04T10:34:56;12.40;;;11.30;;
3054;SDS011;1537;52.018;8.542;2023-12-04T10:38:21;12.83;;;11.63;;
3054;SDS011;1537;52.018;8.542;2023-12-04T10:41:59;14.20;;;12.13;;
3054;SDS011;1537;52.018;8.542;2023-12-04T10:45:25;15.53;;;11.57;;
3054;SDS011;1537;52.018;8.542;2023-12-04T10:48:48;13.93;;;12.70;;
3054;SDS011;1537;52.018;8.542;2023-12-04T10:52:12;14.17;;;12.30;;
3054;SDS011;1537;52.018;8.542;2023-12-04T10:55:37;12.87;;;11.67;;
3054;SDS011;1537;52.018;8.542;2023-12-04T10:59:02;15.00;;;13.70;;
3054;SDS011;1537;52.018;8.542;2023-12-04T11:02:29;12.93;;;11.63;;
3054;SDS011;1537;52.018;8.542;2023-12-04T11:06:01;13.83;;;12.57;;
3054;SDS011;1537;52.018;8.542;2023-12-04T11:09:27;13.77;;;12.37;;
3054;SDS011;1537;52.018;8.542;2023-12-04T11:12:54;13.10;;;11.90;;
3054;SDS011;1537;52.018;8.542;2023-12-04T11:16:26;14.67;;;13.27;;
3054;SDS011;1537;52.018;8.542;2023-12-04T11:19:55;13.50;;;12.30;;
3054;SDS011;1537;52.018;8.542;2023-12-04T11:23:23;14.33;;;12.90;;
3054;SDS011;1537;52.018;8.542;2023-12-04T11:26:48;13.33;;;12.10;;
3054;SDS011;1537;52.018;8.542;2023-12-04T11:30:13;12.33;;;11.10;;
3054;SDS011;1537;52.018;8.542;2023-12-04T11:33:40;13.50;;;12.20;;
3054;SDS011;1537;52.018;8.542;2023-12-04T11:37:06;12.50;;;11.30;;
3054;SDS011;1537;52.018;8.542;2023-12-04T11:40:31;15.00;;;12.63;;
3054;SDS011;1537;52.018;8.542;2023-12-04T11:43:55;14.30;;;12.93;;
3054;SDS011;1537;52.018;8.542;2023-12-04T11:47:27;13.00;;;11.70;;
3054;SDS011;1537;52.018;8.542;2023-12-04T11:50:54;12.27;;;11.20;;
3054;SDS011;1537;52.018;8.542;2023-12-04T11:54:21;14.37;;;11.80;;
3054;SDS011;1537;52.018;8.542;2023-12-04T11:57:49;13.20;;;11.90;;
3054;SDS011;1537;52.018;8.542;2023-12-04T12:01:16;11.50;;;10.33;;
3054;SDS011;1537;52.018;8.542;2023-12-04T12:04:40;12.50;;;11.20;;
3054;SDS011;1537;52.018;8.542;2023-12-04T12:08:05;11.10;;;10.00;;
3054;SDS011;1537;52.018;8.542;2023-12-04T12:11:31;11.10;;;9.90;;
3054;SDS011;1537;52.018;8.542;2023-12-04T12:14:55;12.63;;;11.43;;
3054;SDS011;1537;52.018;8.542;2023-12-04T12:18:21;11.97;;;10.93;;
3054;SDS011;1537;52.018;8.542;2023-12-04T12:21:47;12.30;;;11.10;;
3054;SDS011;1537;52.018;8.542;2023-12-04T12:25:15;11.73;;;10.57;;
3054;SDS011;1537;52.018;8.542;2023-12-04T12:28:40;11.50;;;10.40;;
3054;SDS011;1537;52.018;8.542;2023-12-04T12:32:04;13.00;;;11.80;;
3054;SDS011;1537;52.018;8.542;2023-12-04T12:35:28;12.30;;;11.07;;
3054;SDS011;1537;52.018;8.542;2023-12-04T12:38:53;14.30;;;12.90;;
3054;SDS011;1537;52.018;8.542;2023-12-04T12:42:23;10.33;;;9.40;;
3054;SDS011;1537;52.018;8.542;2023-12-04T12:45:47;12.10;;;10.90;;
3054;SDS011;1537;52.018;8.542;2023-12-04T12:49:13;13.13;;;11.40;;
3054;SDS011;1537;52.018;8.542;2023-12-04T12:52:44;12.80;;;11.50;;
3054;SDS011;1537;52.018;8.542;2023-12-04T12:56:08;12.70;;;11.50;;
3054;SDS011;1537;52.018;8.542;2023-12-04T12:59:34;13.57;;;12.20;;
3054;SDS011;1537;52.018;8.542;2023-12-04T13:02:58;14.27;;;12.80;;
3054;SDS011;1537;52.018;8.542;2023-12-04T13:06:22;13.80;;;12.47;;
3054;SDS011;1537;52.018;8.542;2023-12-04T13:09:46;12.00;;;10.90;;
3054;SDS011;1537;52.018;8.542;2023-12-04T13:13:10;12.33;;;11.03;;
3054;SDS011;1537;52.018;8.542;2023-12-04T13:16:35;12.70;;;11.50;;
3054;SDS011;1537;52.018;8.542;2023-12-04T13:19:59;13.47;;;12.27;;
3054;SDS011;1537;52.018;8.542;2023-12-04T13:23:23;13.03;;;11.73;;
3054;SDS011;1537;52.018;8.542;2023-12-04T13:26:47;13.47;;;11.83;;
3054;SDS011;1537;52.018;8.542;2023-12-04T13:30:10;14.67;;;13.30;;
3054;SDS011;1537;52.018;8.542;2023-12-04T13:33:36;12.30;;;11.00;;
3054;SDS011;1537;52.018;8.542;2023-12-04T13:36:59;13.67;;;12.37;;
3054;SDS011;1537;52.018;8.542;2023-12-04T13:40:23;12.20;;;11.00;;
3054;SDS011;1537;52.018;8.542;2023-12-04T13:43:50;12.80;;;11.70;;
3054;SDS011;1537;52.018;8.542;2023-12-04T13:47:12;15.80;;;14.30;;
3054;SDS011;1537;52.018;8.542;2023-12-04T13:50:39;11.00;;;9.90;;
3054;SDS011;1537;52.018;8.542;2023-12-04T13:54:02;14.93;;;12.33;;
3054;SDS011;1537;52.018;8.542;2023-12-04T13:57:38;14.43;;;13.13;;
3054;SDS011;1537;52.018;8.542;2023-12-04T14:01:17;11.70;;;10.50;;
3054;SDS011;1537;52.018;8.542;2023-12-04T14:04:45;11.60;;;10.60;;
3054;SDS011;1537;52.018;8.542;2023-12-04T14:08:11;11.70;;;10.50;;
3054;SDS011;1537;52.018;8.542;2023-12-04T14:11:36;13.80;;;12.40;;
3054;SDS011;1537;52.018;8.542;2023-12-04T14:15:00;14.10;;;12.70;;
3054;SDS011;1537;52.018;8.542;2023-12-04T14:18:25;11.83;;;10.73;;
3054;SDS011;1537;52.018;8.542;2023-12-04T14:21:48;14.27;;;12.97;;
3054;SDS011;1537;52.018;8.542;2023-12-04T14:25:13;12.27;;;11.17;;
3054;SDS011;1537;52.018;8.542;2023-12-04T14:28:37;12.10;;;11.00;;
3054;SDS011;1537;52.018;8.542;2023-12-04T14:32:04;11.93;;;10.67;;
3054;SDS011;1537;52.018;8.542;2023-12-04T14:35:28;12.70;;;11.40;;
3054;SDS011;1537;52.018;8.542;2023-12-04T14:38:52;13.63;;;12.23;;
3054;SDS011;1537;52.018;8.542;2023-12-04T14:42:19;12.50;;;11.30;;
3054;SDS011;1537;52.018;8.542;2023-12-04T14:45:42;12.40;;;10.97;;
3054;SDS011;1537;52.018;8.542;2023-12-04T14:49:06;13.73;;;12.37;;
3054;SDS011;1537;52.018;8.542;2023-12-04T14:52:30;13.07;;;11.77;;
3054;SDS011;1537;52.018;8.542;2023-12-04T14:55:56;13.10;;;11.70;;
3054;SDS011;1537;52.018;8.542;2023-12-04T14:59:47;13.30;;;12.00;;
3054;SDS011;1537;52.018;8.542;2023-12-04T15:03:27;13.60;;;12.20;;
3054;SDS011;1537;52.018;8.542;2023-12-04T15:07:05;13.63;;;12.23;;
3054;SDS011;1537;52.018;8.542;2023-12-04T15:10:58;12.37;;;11.27;;
3054;SDS011;1537;52.018;8.542;2023-12-04T15:14:43;11.10;;;10.03;;
3054;SDS011;1537;52.018;8.542;2023-12-04T15:18:14;11.50;;;10.40;;
3054;SDS011;1537;52.018;8.542;2023-12-04T15:21:58;11.50;;;10.40;;
3054;SDS011;1537;52.018;8.542;2023-12-04T15:25:21;12.40;;;11.20;;
3054;SDS011;1537;52.018;8.542;2023-12-04T15:28:45;14.03;;;12.73;;
3054;SDS011;1537;52.018;8.542;2023-12-04T15:32:10;11.97;;;10.77;;
3054;SDS011;1537;52.018;8.542;2023-12-04T15:35:36;11.30;;;10.00;;
3054;SDS011;1537;52.018;8.542;2023-12-04T15:39:00;13.50;;;10.20;;
3054;SDS011;1537;52.018;8.542;2023-12-04T15:42:23;10.90;;;9.07;;
3054;SDS011;1537;52.018;8.542;2023-12-04T15:45:47;14.17;;;9.90;;
3054;SDS011;1537;52.018;8.542;2023-12-04T15:49:10;10.20;;;8.00;;
3054;SDS011;1537;52.018;8.542;2023-12-04T15:52:35;12.17;;;8.83;;
3054;SDS011;1537;52.018;8.542;2023-12-04T15:56:02;11.00;;;7.77;;
3054;SDS011;1537;52.018;8.542;2023-12-04T15:59:28;12.63;;;9.13;;
3054;SDS011;1537;52.018;8.542;2023-12-04T16:02:52;10.87;;;8.20;;
3054;SDS011;1537;52.018;8.542;2023-12-04T16:06:16;9.70;;;7.30;;
3054;SDS011;1537;52.018;8.542;2023-12-04T16:09:41;11.63;;;8.03;;
3054;SDS011;1537;52.018;8.542;2023-12-04T16:13:05;15.87;;;9.53;;
3054;SDS011;1537;52.018;8.542;2023-12-04T16:16:29;12.07;;;9.17;;
3054;SDS011;1537;52.018;8.542;2023-12-04T16:19:52;14.23;;;8.90;;
3054;SDS011;1537;52.018;8.542;2023-12-04T16:23:19;14.33;;;9.50;;
3054;SDS011;1537;52.018;8.542;2023-12-04T16:26:45;11.97;;;9.60;;
3054;SDS011;1537;52.018;8.542;2023-12-04T16:30:08;10.20;;;7.57;;
3054;SDS011;1537;52.018;8.542;2023-12-04T16:33:33;12.50;;;8.97;;
3054;SDS011;1537;52.018;8.542;2023-12-04T16:36:59;12.43;;;10.20;;
3054;SDS011;1537;52.018;8.542;2023-12-04T16:40:26;12.60;;;10.00;;
3054;SDS011;1537;52.018;8.542;2023-12-04T16:43:51;11.70;;;8.70;;
3054;SDS011;1537;52.018;8.542;2023-12-04T16:47:15;18.40;;;9.27;;
3054;SDS011;1537;52.018;8.542;2023-12-04T16:50:41;12.13;;;9.03;;
3054;SDS011;1537;52.018;8.542;2023-12-04T16:54:09;11.33;;;9.17;;
3054;SDS011;1537;52.018;8.542;2023-12-04T16:57:37;14.03;;;11.80;;
3054;SDS011;1537;52.018;8.542;2023-12-04T17:01:02;13.33;;;10.63;;
3054;SDS011;1537;52.018;8.542;2023-12-04T17:04:26;17.13;;;11.87;;
3054;SDS011;1537;52.018;8.542;2023-12-04T17:07:51;12.93;;;11.33;;
3054;SDS011;1537;52.018;8.542;2023-12-04T17:11:18;13.50;;;10.60;;
3054;SDS011;1537;52.018;8.542;2023-12-04T17:14:42;14.57;;;11.27;;
3054;SDS011;1537;52.018;8.542;2023-12-04T17:18:07;11.77;;;10.13;;
3054;SDS011;1537;52.018;8.542;2023-12-04T17:21:31;13.40;;;11.07;;
3054;SDS011;1537;52.018;8.542;2023-12-04T17:24:55;17.93;;;12.17;;
3054;SDS011;1537;52.018;8.542;2023-12-04T17:28:19;13.17;;;10.10;;
3054;SDS011;1537;52.018;8.542;2023-12-04T17:31:42;15.23;;;10.93;;
3054;SDS011;1537;52.018;8.542;2023-12-04T17:35:08;12.80;;;10.40;;
3054;SDS011;1537;52.018;8.542;2023-12-04T17:38:33;14.23;;;10.23;;
3054;SDS011;1537;52.018;8.542;2023-12-04T17:41:57;14.60;;;11.37;;
3054;SDS011;1537;52.018;8.542;2023-12-04T17:45:20;13.60;;;10.10;;
3054;SDS011;1537;52.018;8.542;2023-12-04T17:48:44;14.53;;;11.90;;
3054;SDS011;1537;52.018;8.542;2023-12-04T17:52:11;12.43;;;9.50;;
3054;SDS011;1537;52.018;8.542;2023-12-04T17:55:35;15.33;;;10.90;;
3054;SDS011;1537;52.018;8.542;2023-12-04T17:59:00;15.07;;;11.07;;
3054;SDS011;1537;52.018;8.542;2023-12-04T18:02:24;14.27;;;9.57;;
3054;SDS011;1537;52.018;8.542;2023-12-04T18:05:48;14.50;;;10.97;;
3054;SDS011;1537;52.018;8.542;2023-12-04T18:09:13;17.40;;;11.07;;
3054;SDS011;1537;52.018;8.542;2023-12-04T18:12:38;12.83;;;10.40;;
3054;SDS011;1537;52.018;8.542;2023-12-04T18:16:05;15.90;;;11.87;;
3054;SDS011;1537;52.018;8.542;2023-12-04T18:19:31;14.70;;;11.73;;
3054;SDS011;1537;52.018;8.542;2023-12-04T18:22:58;14.27;;;11.10;;
3054;SDS011;1537;52.018;8.542;2023-12-04T18:26:24;15.20;;;11.43;;
3054;SDS011;1537;52.018;8.542;2023-12-04T18:29:50;16.73;;;12.63;;
3054;SDS011;1537;52.018;8.542;2023-12-04T18:33:15;14.47;;;11.50;;
3054;SDS011;1537;52.018;8.542;2023-12-04T18:36:41;13.97;;;12.20;;
3054;SDS011;1537;52.018;8.542;2023-12-04T18:40:06;14.23;;;10.90;;
3054;SDS011;1537;52.018;8.542;2023-12-04T18:43:36;16.13;;;10.13;;
3054;SDS011;1537;52.018;8.542;2023-12-04T18:47:00;15.13;;;11.27;;
3054;SDS011;1537;52.018;8.542;2023-12-04T18:50:32;15.23;;;11.97;;
3054;SDS011;1537;52.018;8.542;2023-12-04T18:53:57;14.50;;;10.93;;
3054;SDS011;1537;52.018;8.542;2023-12-04T18:57:24;19.93;;;13.10;;
3054;SDS011;1537;52.018;8.542;2023-12-04T19:00:49;14.90;;;10.67;;
3054;SDS011;1537;52.018;8.542;2023-12-04T19:04:16;18.57;;;11.90;;
3054;SDS011;1537;52.018;8.542;2023-12-04T19:07:39;16.10;;;12.00;;
3054;SDS011;1537;52.018;8.542;2023-12-04T19:11:06;15.80;;;10.97;;
3054;SDS011;1537;52.018;8.542;2023-12-04T19:14:33;18.77;;;11.50;;
3054;SDS011;1537;52.018;8.542;2023-12-04T19:18:05;16.70;;;11.50;;
3054;SDS011;1537;52.018;8.542;2023-12-04T19:21:29;14.83;;;9.70;;
3054;SDS011;1537;52.018;8.542;2023-12-04T19:24:53;16.47;;;9.80;;
3054;SDS011;1537;52.018;8.542;2023-12-04T19:28:17;15.57;;;10.90;;
3054;SDS011;1537;52.018;8.542;2023-12-04T19:31:41;22.73;;;11.93;;
3054;SDS011;1537;52.018;8.542;2023-12-04T19:35:07;15.00;;;10.33;;
3054;SDS011;1537;52.018;8.542;2023-12-04T19:38:30;16.53;;;11.17;;
3054;SDS011;1537;52.018;8.542;2023-12-04T19:41:54;15.47;;;10.73;;
3054;SDS011;1537;52.018;8.542;2023-12-04T19:45:18;15.63;;;10.40;;
3054;SDS011;1537;52.018;8.542;2023-12-04T19:48:42;15.83;;;10.03;;
3054;SDS011;1537;52.018;8.542;2023-12-04T19:52:07;14.80;;;10.33;;
3054;SDS011;1537;52.018;8.542;2023-12-04T19:55:31;15.23;;;10.00;;
3054;SDS011;1537;52.018;8.542;2023-12-04T19:58:55;17.70;;;10.67;;
3054;SDS011;1537;52.018;8.542;2023-12-04T20:02:18;14.80;;;10.03;;
3054;SDS011;1537;52.018;8.542;2023-12-04T20:05:42;15.27;;;11.97;;
3054;SDS011;1537;52.018;8.542;2023-12-04T20:09:07;16.10;;;12.07;;
3054;SDS011;1537;52.018;8.542;2023-12-04T20:12:32;17.83;;;12.20;;
3054;SDS011;1537;52.018;8.542;2023-12-04T20:15:55;16.63;;;12.10;;
3054;SDS011;1537;52.018;8.542;2023-12-04T20:19:19;17.80;;;11.87;;
3054;SDS011;1537;52.018;8.542;2023-12-04T20:22:43;18.17;;;11.40;;
3054;SDS011;1537;52.018;8.542;2023-12-04T20:26:08;16.17;;;11.80;;
3054;SDS011;1537;52.018;8.542;2023-12-04T20:29:32;16.70;;;12.47;;
3054;SDS011;1537;52.018;8.542;2023-12-04T20:32:56;17.13;;;11.60;;
3054;SDS011;1537;52.018;8.542;2023-12-04T20:36:21;17.90;;;11.70;;
3054;SDS011;1537;52.018;8.542;2023-12-04T20:39:45;15.70;;;10.87;;
3054;SDS011;1537;52.018;8.542;2023-12-04T20:43:10;16.37;;;11.07;;
3054;SDS011;1537;52.018;8.542;2023-12-04T20:46:33;14.90;;;10.90;;
3054;SDS011;1537;52.018;8.542;2023-12-04T20:49:57;17.70;;;11.10;;
3054;SDS011;1537;52.018;8.542;2023-12-04T20:53:21;16.80;;;11.73;;
3054;SDS011;1537;52.018;8.542;2023-12-04T20:56:45;16.63;;;12.73;;
3054;SDS011;1537;52.018;8.542;2023-12-04T21:00:11;15.60;;;10.40;;
3054;SDS011;1537;52.018;8.542;2023-12-04T21:03:35;17.63;;;11.47;;
3054;SDS011;1537;52.018;8.542;2023-12-04T21:06:59;19.20;;;12.13;;
3054;SDS011;1537;52.018;8.542;2023-12-04T21:10:24;17.20;;;12.67;;
3054;SDS011;1537;52.018;8.542;2023-12-04T21:13:48;16.37;;;11.63;;
3054;SDS011;1537;52.018;8.542;2023-12-04T21:17:13;15.20;;;10.83;;
3054;SDS011;1537;52.018;8.542;2023-12-04T21:20:37;17.13;;;11.90;;
3054;SDS011;1537;52.018;8.542;2023-12-04T21:24:00;14.40;;;10.90;;
3054;SDS011;1537;52.018;8.542;2023-12-04T21:27:25;14.97;;;10.73;;
3054;SDS011;1537;52.018;8.542;2023-12-04T21:30:52;15.67;;;11.07;;
3054;SDS011;1537;52.018;8.542;2023-12-04T21:34:19;15.30;;;11.00;;
3054;SDS011;1537;52.018;8.542;2023-12-04T21:37:43;14.70;;;11.20;;
3054;SDS011;1537;52.018;8.542;2023-12-04T21:41:08;15.17;;;10.10;;
3054;SDS011;1537;52.018;8.542;2023-12-04T21:44:32;16.40;;;12.03;;